Airfield :
LOGIN :

Register | Disclaimer

   EN    FR    IT 

 










Legend :    VFR   Marginal VFR   IFR   Intensive IFR   Very Intensive IFR
Visi :
Ceiling :
>= 8 km
>= 3000ft
5 to 8 km
1000 to 3000 ft
1500m to 5 km
500 to 1000 ft
800 to 1500m
200 to 500 ft
< 800m
< 200 ft
Symbols :   Thunderstorms  Fog  Heavy snow  Heavy precipitations  Wind > 20 kt
SIGMETs :     Misc.  Thunderstorms  Icing  Turbulence  Mountain Waves  Volcanic Ashes






- Airport Elevation : 25 ft
- IATA code : QCY


EGXC - RAF Coningsby

CURRENT METAR :
  • 281122Z 16014KT 9999 -RA BKN009 OVC022 04/03 Q1004 TEMPO 7000 RA RMK GRN TEMPO GRN

EXPIRED METARs :
  • 281050Z 17014KT 9999 -RA SCT010 BKN016 OVC030 04/02 Q1005 TEMPO 7000 RA RMK GRN TEMPO GRN
  • 281023Z 17012KT 9999 -RA SCT011 BKN018 OVC030 03/02 Q1006 TEMPO 7000 RA RMK GRN TEMPO GRN
  • 280950Z 19013KT 7000 -RA FEW012 BKN018 OVC040 03/01 Q1007 BECMG BKN010 RMK WHT BECMG GRN
  • 280920Z 19012KT 9999 BKN020 BKN035 OVC060 03/00 Q1008 BECMG BKN010 RMK WHT BECMG GRN
  • 280850Z 18010KT 9999 FEW028 OVC080 02/00 Q1009 BECMG -RA FEW008 BKN020 RMK BLU BECMG WHT
  • 280821Z 17008KT CAVOK 02/M00 Q1009 BECMG -RA FEW012 BKN024 RMK BLU BECMG WHT

TAF TAF EGXC
Valid from the 28 at 12:00 until the 29 at 06:00 UTC


281046Z 2812/2906 16018G28KT 9999 -RA BKN010
TEMPO 2812/2817 3000 RADZ BKN006
PROB30
TEMPO 2814/2817 BKN004
BECMG 2816/2819 20015G25KT NSW
PROB30
TEMPO 2817/2822 FEW010
PROB30
TEMPO 2822/2903 5000 RA BKN006
BECMG 2902/2905 19020G35KT
PROB40
TEMPO 2903/2906 BKN020



MET'MAP, your aeronautical weather chart ! - Copyright ORBIFLY December 2007 - Disclaimer

ORBIFLY MET'MAP TEAM :

Programming & Development : Alexandra Zaïnal
Concept & original design : Baudouin d'Aumeries
Assistance for programming : Marc-Olivier Méhu
Technical & hardware support : Manuel Goepfert

Contact : metmap@orbifly.com




SOURCES & CREDITS :

   NOAA